sensor_id;sensor_type;location;lat;lon;timestamp;P1;durP1;ratioP1;P2;durP2;ratioP2
13731;SDS011;6937;56.096;12.664;2024-03-08T00:00:18;7.47;;;6.15;;
13731;SDS011;6937;56.096;12.664;2024-03-08T00:02:44;8.80;;;6.88;;
13731;SDS011;6937;56.096;12.664;2024-03-08T00:05:10;7.72;;;5.88;;
13731;SDS011;6937;56.096;12.664;2024-03-08T00:07:37;8.05;;;6.40;;
13731;SDS011;6937;56.096;12.664;2024-03-08T00:10:03;7.85;;;5.97;;
13731;SDS011;6937;56.096;12.664;2024-03-08T00:12:30;8.43;;;6.38;;
13731;SDS011;6937;56.096;12.664;2024-03-08T00:14:55;6.60;;;5.75;;
13731;SDS011;6937;56.096;12.664;2024-03-08T00:17:21;7.85;;;5.97;;
13731;SDS011;6937;56.096;12.664;2024-03-08T00:19:50;7.07;;;6.07;;
13731;SDS011;6937;56.096;12.664;2024-03-08T00:22:16;6.82;;;5.78;;
13731;SDS011;6937;56.096;12.664;2024-03-08T00:24:42;7.40;;;5.75;;
13731;SDS011;6937;56.096;12.664;2024-03-08T00:27:07;8.43;;;5.80;;
13731;SDS011;6937;56.096;12.664;2024-03-08T00:29:34;9.18;;;6.50;;
13731;SDS011;6937;56.096;12.664;2024-03-08T00:31:59;7.18;;;6.25;;
13731;SDS011;6937;56.096;12.664;2024-03-08T00:34:26;7.32;;;6.13;;
13731;SDS011;6937;56.096;12.664;2024-03-08T00:36:51;8.48;;;7.25;;
13731;SDS011;6937;56.096;12.664;2024-03-08T00:39:17;8.23;;;6.47;;
13731;SDS011;6937;56.096;12.664;2024-03-08T00:41:44;8.18;;;6.70;;
13731;SDS011;6937;56.096;12.664;2024-03-08T00:44:10;7.30;;;6.22;;
13731;SDS011;6937;56.096;12.664;2024-03-08T00:46:36;7.55;;;6.22;;
13731;SDS011;6937;56.096;12.664;2024-03-08T00:49:01;9.15;;;6.95;;
13731;SDS011;6937;56.096;12.664;2024-03-08T00:51:27;8.63;;;6.57;;
13731;SDS011;6937;56.096;12.664;2024-03-08T00:53:52;7.80;;;7.00;;
13731;SDS011;6937;56.096;12.664;2024-03-08T00:56:17;7.80;;;6.78;;
13731;SDS011;6937;56.096;12.664;2024-03-08T00:58:43;9.45;;;7.60;;
13731;SDS011;6937;56.096;12.664;2024-03-08T01:01:09;9.27;;;7.78;;
13731;SDS011;6937;56.096;12.664;2024-03-08T01:03:35;8.00;;;7.13;;
13731;SDS011;6937;56.096;12.664;2024-03-08T01:06:01;9.27;;;7.55;;
13731;SDS011;6937;56.096;12.664;2024-03-08T01:08:27;8.13;;;6.93;;
13731;SDS011;6937;56.096;12.664;2024-03-08T01:10:53;7.32;;;6.50;;
13731;SDS011;6937;56.096;12.664;2024-03-08T01:13:19;7.43;;;6.30;;
13731;SDS011;6937;56.096;12.664;2024-03-08T01:15:44;11.85;;;7.88;;
13731;SDS011;6937;56.096;12.664;2024-03-08T01:18:11;8.60;;;6.78;;
13731;SDS011;6937;56.096;12.664;2024-03-08T01:20:36;9.20;;;7.45;;
13731;SDS011;6937;56.096;12.664;2024-03-08T01:23:02;10.35;;;7.65;;
13731;SDS011;6937;56.096;12.664;2024-03-08T01:25:28;10.70;;;8.13;;
13731;SDS011;6937;56.096;12.664;2024-03-08T01:27:54;11.63;;;8.40;;
13731;SDS011;6937;56.096;12.664;2024-03-08T01:30:19;9.43;;;7.60;;
13731;SDS011;6937;56.096;12.664;2024-03-08T01:32:45;8.75;;;7.45;;
13731;SDS011;6937;56.096;12.664;2024-03-08T01:35:10;10.40;;;8.65;;
13731;SDS011;6937;56.096;12.664;2024-03-08T01:37:36;9.52;;;8.20;;
13731;SDS011;6937;56.096;12.664;2024-03-08T01:40:02;9.15;;;8.18;;
13731;SDS011;6937;56.096;12.664;2024-03-08T01:42:28;12.45;;;9.23;;
13731;SDS011;6937;56.096;12.664;2024-03-08T01:44:54;15.48;;;10.82;;
13731;SDS011;6937;56.096;12.664;2024-03-08T01:47:20;11.73;;;9.63;;
13731;SDS011;6937;56.096;12.664;2024-03-08T01:49:48;10.23;;;8.90;;
13731;SDS011;6937;56.096;12.664;2024-03-08T01:52:15;10.98;;;8.82;;
13731;SDS011;6937;56.096;12.664;2024-03-08T01:54:41;10.00;;;8.80;;
13731;SDS011;6937;56.096;12.664;2024-03-08T01:57:07;9.75;;;8.15;;
13731;SDS011;6937;56.096;12.664;2024-03-08T01:59:33;11.85;;;9.63;;
13731;SDS011;6937;56.096;12.664;2024-03-08T02:02:00;10.88;;;8.63;;
13731;SDS011;6937;56.096;12.664;2024-03-08T02:04:28;10.00;;;8.82;;
13731;SDS011;6937;56.096;12.664;2024-03-08T02:06:55;11.45;;;8.98;;
13731;SDS011;6937;56.096;12.664;2024-03-08T02:09:23;11.30;;;8.25;;
13731;SDS011;6937;56.096;12.664;2024-03-08T02:11:50;10.50;;;8.70;;
13731;SDS011;6937;56.096;12.664;2024-03-08T02:14:16;9.88;;;8.63;;
13731;SDS011;6937;56.096;12.664;2024-03-08T02:16:43;13.35;;;9.25;;
13731;SDS011;6937;56.096;12.664;2024-03-08T02:19:09;12.00;;;9.60;;
13731;SDS011;6937;56.096;12.664;2024-03-08T02:21:34;10.90;;;8.65;;
13731;SDS011;6937;56.096;12.664;2024-03-08T02:24:01;11.52;;;9.20;;
13731;SDS011;6937;56.096;12.664;2024-03-08T02:26:26;12.85;;;10.23;;
13731;SDS011;6937;56.096;12.664;2024-03-08T02:28:52;15.80;;;11.00;;
13731;SDS011;6937;56.096;12.664;2024-03-08T02:31:17;13.90;;;10.48;;
13731;SDS011;6937;56.096;12.664;2024-03-08T02:33:43;12.30;;;10.15;;
13731;SDS011;6937;56.096;12.664;2024-03-08T02:36:08;15.35;;;10.13;;
13731;SDS011;6937;56.096;12.664;2024-03-08T02:38:33;11.93;;;10.30;;
13731;SDS011;6937;56.096;12.664;2024-03-08T02:40:59;10.68;;;8.18;;
13731;SDS011;6937;56.096;12.664;2024-03-08T02:43:24;10.85;;;9.38;;
13731;SDS011;6937;56.096;12.664;2024-03-08T02:45:50;12.13;;;8.70;;
13731;SDS011;6937;56.096;12.664;2024-03-08T02:48:18;14.07;;;9.55;;
13731;SDS011;6937;56.096;12.664;2024-03-08T02:50:43;8.95;;;8.05;;
13731;SDS011;6937;56.096;12.664;2024-03-08T02:53:09;11.88;;;8.88;;
13731;SDS011;6937;56.096;12.664;2024-03-08T02:55:36;13.13;;;9.50;;
13731;SDS011;6937;56.096;12.664;2024-03-08T02:58:02;12.65;;;9.52;;
13731;SDS011;6937;56.096;12.664;2024-03-08T03:00:28;12.57;;;9.20;;
13731;SDS011;6937;56.096;12.664;2024-03-08T03:02:56;10.95;;;8.70;;
13731;SDS011;6937;56.096;12.664;2024-03-08T03:05:24;11.65;;;8.82;;
13731;SDS011;6937;56.096;12.664;2024-03-08T03:07:50;10.10;;;7.85;;
13731;SDS011;6937;56.096;12.664;2024-03-08T03:10:19;11.15;;;8.70;;
13731;SDS011;6937;56.096;12.664;2024-03-08T03:12:45;12.68;;;8.73;;
13731;SDS011;6937;56.096;12.664;2024-03-08T03:15:11;12.18;;;8.95;;
13731;SDS011;6937;56.096;12.664;2024-03-08T03:17:37;8.02;;;7.18;;
13731;SDS011;6937;56.096;12.664;2024-03-08T03:20:06;9.35;;;7.68;;
13731;SDS011;6937;56.096;12.664;2024-03-08T03:22:37;8.73;;;7.10;;
13731;SDS011;6937;56.096;12.664;2024-03-08T03:25:03;7.53;;;6.40;;
13731;SDS011;6937;56.096;12.664;2024-03-08T03:27:32;8.90;;;6.88;;
13731;SDS011;6937;56.096;12.664;2024-03-08T03:29:58;12.18;;;8.98;;
13731;SDS011;6937;56.096;12.664;2024-03-08T03:32:23;9.70;;;8.57;;
13731;SDS011;6937;56.096;12.664;2024-03-08T03:34:49;10.05;;;8.23;;
13731;SDS011;6937;56.096;12.664;2024-03-08T03:37:18;10.20;;;8.68;;
13731;SDS011;6937;56.096;12.664;2024-03-08T03:39:44;11.38;;;9.23;;
13731;SDS011;6937;56.096;12.664;2024-03-08T03:42:18;18.20;;;10.85;;
13731;SDS011;6937;56.096;12.664;2024-03-08T03:44:47;14.75;;;10.57;;
13731;SDS011;6937;56.096;12.664;2024-03-08T03:47:14;16.70;;;11.75;;
13731;SDS011;6937;56.096;12.664;2024-03-08T03:49:40;12.07;;;8.43;;
13731;SDS011;6937;56.096;12.664;2024-03-08T03:52:06;9.63;;;8.27;;
13731;SDS011;6937;56.096;12.664;2024-03-08T03:54:31;10.65;;;8.80;;
13731;SDS011;6937;56.096;12.664;2024-03-08T03:56:58;11.75;;;8.57;;
13731;SDS011;6937;56.096;12.664;2024-03-08T03:59:23;10.98;;;8.30;;
13731;SDS011;6937;56.096;12.664;2024-03-08T04:01:49;11.63;;;9.02;;
13731;SDS011;6937;56.096;12.664;2024-03-08T04:04:14;11.05;;;8.85;;
13731;SDS011;6937;56.096;12.664;2024-03-08T04:06:40;11.82;;;8.18;;
13731;SDS011;6937;56.096;12.664;2024-03-08T04:09:05;13.98;;;9.32;;
13731;SDS011;6937;56.096;12.664;2024-03-08T04:11:31;9.93;;;8.70;;
13731;SDS011;6937;56.096;12.664;2024-03-08T04:13:56;10.27;;;8.80;;
13731;SDS011;6937;56.096;12.664;2024-03-08T04:16:21;11.52;;;8.90;;
13731;SDS011;6937;56.096;12.664;2024-03-08T04:18:47;12.57;;;9.13;;
13731;SDS011;6937;56.096;12.664;2024-03-08T04:21:12;10.15;;;8.45;;
13731;SDS011;6937;56.096;12.664;2024-03-08T04:23:38;9.13;;;7.25;;
13731;SDS011;6937;56.096;12.664;2024-03-08T04:26:03;10.13;;;7.85;;
13731;SDS011;6937;56.096;12.664;2024-03-08T04:28:33;9.48;;;8.25;;
13731;SDS011;6937;56.096;12.664;2024-03-08T04:30:59;10.00;;;7.57;;
13731;SDS011;6937;56.096;12.664;2024-03-08T04:33:26;10.45;;;8.60;;
13731;SDS011;6937;56.096;12.664;2024-03-08T04:35:52;12.70;;;9.55;;
13731;SDS011;6937;56.096;12.664;2024-03-08T04:38:18;12.23;;;9.20;;
13731;SDS011;6937;56.096;12.664;2024-03-08T04:40:43;10.45;;;8.85;;
13731;SDS011;6937;56.096;12.664;2024-03-08T04:43:08;11.32;;;8.40;;
13731;SDS011;6937;56.096;12.664;2024-03-08T04:45:35;9.38;;;7.70;;
13731;SDS011;6937;56.096;12.664;2024-03-08T04:48:01;11.43;;;8.13;;
13731;SDS011;6937;56.096;12.664;2024-03-08T04:50:26;11.90;;;8.82;;
13731;SDS011;6937;56.096;12.664;2024-03-08T04:52:54;12.00;;;8.52;;
13731;SDS011;6937;56.096;12.664;2024-03-08T04:55:20;14.10;;;9.75;;
13731;SDS011;6937;56.096;12.664;2024-03-08T04:57:46;11.07;;;8.43;;
13731;SDS011;6937;56.096;12.664;2024-03-08T05:00:12;10.50;;;8.60;;
13731;SDS011;6937;56.096;12.664;2024-03-08T05:02:38;11.45;;;9.20;;
13731;SDS011;6937;56.096;12.664;2024-03-08T05:05:04;9.93;;;7.90;;
13731;SDS011;6937;56.096;12.664;2024-03-08T05:07:31;12.23;;;8.60;;
13731;SDS011;6937;56.096;12.664;2024-03-08T05:09:57;10.35;;;9.10;;
13731;SDS011;6937;56.096;12.664;2024-03-08T05:12:23;11.27;;;8.77;;
13731;SDS011;6937;56.096;12.664;2024-03-08T05:14:48;10.98;;;9.85;;
13731;SDS011;6937;56.096;12.664;2024-03-08T05:17:14;10.77;;;9.02;;
13731;SDS011;6937;56.096;12.664;2024-03-08T05:19:40;11.05;;;8.73;;
13731;SDS011;6937;56.096;12.664;2024-03-08T05:22:06;11.38;;;8.32;;
13731;SDS011;6937;56.096;12.664;2024-03-08T05:24:31;8.50;;;7.25;;
13731;SDS011;6937;56.096;12.664;2024-03-08T05:26:56;10.30;;;7.97;;
13731;SDS011;6937;56.096;12.664;2024-03-08T05:29:22;10.23;;;7.85;;
13731;SDS011;6937;56.096;12.664;2024-03-08T05:31:49;11.52;;;8.90;;
13731;SDS011;6937;56.096;12.664;2024-03-08T05:34:17;12.40;;;8.60;;
13731;SDS011;6937;56.096;12.664;2024-03-08T05:36:44;11.00;;;8.60;;
13731;SDS011;6937;56.096;12.664;2024-03-08T05:39:11;10.80;;;8.02;;
13731;SDS011;6937;56.096;12.664;2024-03-08T05:41:41;12.15;;;8.15;;
13731;SDS011;6937;56.096;12.664;2024-03-08T05:44:07;11.40;;;7.40;;
13731;SDS011;6937;56.096;12.664;2024-03-08T05:46:33;8.43;;;7.28;;
13731;SDS011;6937;56.096;12.664;2024-03-08T05:49:00;9.82;;;7.78;;
13731;SDS011;6937;56.096;12.664;2024-03-08T05:51:30;10.10;;;8.20;;
13731;SDS011;6937;56.096;12.664;2024-03-08T05:53:56;12.40;;;8.85;;
13731;SDS011;6937;56.096;12.664;2024-03-08T05:56:21;10.05;;;8.20;;
13731;SDS011;6937;56.096;12.664;2024-03-08T05:58:48;8.35;;;7.30;;
13731;SDS011;6937;56.096;12.664;2024-03-08T06:01:15;8.73;;;7.50;;
13731;SDS011;6937;56.096;12.664;2024-03-08T06:03:41;12.82;;;9.85;;
13731;SDS011;6937;56.096;12.664;2024-03-08T06:06:12;16.02;;;12.40;;
13731;SDS011;6937;56.096;12.664;2024-03-08T06:08:37;11.13;;;9.73;;
13731;SDS011;6937;56.096;12.664;2024-03-08T06:11:03;13.52;;;10.50;;
13731;SDS011;6937;56.096;12.664;2024-03-08T06:13:29;12.05;;;9.38;;
13731;SDS011;6937;56.096;12.664;2024-03-08T06:15:56;16.30;;;12.35;;
13731;SDS011;6937;56.096;12.664;2024-03-08T06:18:22;12.02;;;9.60;;
13731;SDS011;6937;56.096;12.664;2024-03-08T06:20:47;12.43;;;10.35;;
13731;SDS011;6937;56.096;12.664;2024-03-08T06:23:13;12.48;;;10.50;;
13731;SDS011;6937;56.096;12.664;2024-03-08T06:25:42;14.93;;;10.43;;
13731;SDS011;6937;56.096;12.664;2024-03-08T06:28:11;13.68;;;10.05;;
13731;SDS011;6937;56.096;12.664;2024-03-08T06:30:36;15.73;;;11.48;;
13731;SDS011;6937;56.096;12.664;2024-03-08T06:33:01;12.05;;;9.43;;
13731;SDS011;6937;56.096;12.664;2024-03-08T06:35:27;13.18;;;10.32;;
13731;SDS011;6937;56.096;12.664;2024-03-08T06:37:52;14.13;;;9.05;;
13731;SDS011;6937;56.096;12.664;2024-03-08T06:40:18;13.68;;;9.10;;
13731;SDS011;6937;56.096;12.664;2024-03-08T06:42:43;12.75;;;10.38;;
13731;SDS011;6937;56.096;12.664;2024-03-08T06:45:09;15.90;;;10.43;;
13731;SDS011;6937;56.096;12.664;2024-03-08T06:47:35;12.70;;;10.63;;
13731;SDS011;6937;56.096;12.664;2024-03-08T06:50:02;14.52;;;11.60;;
13731;SDS011;6937;56.096;12.664;2024-03-08T06:52:28;15.20;;;11.32;;
13731;SDS011;6937;56.096;12.664;2024-03-08T06:54:54;16.48;;;11.82;;
13731;SDS011;6937;56.096;12.664;2024-03-08T06:57:19;14.65;;;12.15;;
13731;SDS011;6937;56.096;12.664;2024-03-08T06:59:48;18.77;;;12.07;;
13731;SDS011;6937;56.096;12.664;2024-03-08T07:02:14;14.73;;;11.65;;
13731;SDS011;6937;56.096;12.664;2024-03-08T07:04:39;14.07;;;12.13;;
13731;SDS011;6937;56.096;12.664;2024-03-08T07:07:05;13.85;;;12.05;;
13731;SDS011;6937;56.096;12.664;2024-03-08T07:09:33;15.02;;;11.60;;
13731;SDS011;6937;56.096;12.664;2024-03-08T07:11:58;14.73;;;11.38;;
13731;SDS011;6937;56.096;12.664;2024-03-08T07:14:24;15.02;;;11.05;;
13731;SDS011;6937;56.096;12.664;2024-03-08T07:16:49;13.60;;;11.30;;
13731;SDS011;6937;56.096;12.664;2024-03-08T07:19:16;14.88;;;12.05;;
13731;SDS011;6937;56.096;12.664;2024-03-08T07:21:42;13.38;;;11.98;;
13731;SDS011;6937;56.096;12.664;2024-03-08T07:24:09;19.02;;;13.20;;
13731;SDS011;6937;56.096;12.664;2024-03-08T07:26:49;16.30;;;11.95;;
13731;SDS011;6937;56.096;12.664;2024-03-08T07:29:17;15.98;;;12.02;;
13731;SDS011;6937;56.096;12.664;2024-03-08T07:31:42;14.27;;;11.85;;
13731;SDS011;6937;56.096;12.664;2024-03-08T07:34:16;13.35;;;11.18;;
13731;SDS011;6937;56.096;12.664;2024-03-08T07:36:41;11.15;;;9.95;;
13731;SDS011;6937;56.096;12.664;2024-03-08T07:39:07;13.10;;;10.93;;
13731;SDS011;6937;56.096;12.664;2024-03-08T07:41:37;11.85;;;10.38;;
13731;SDS011;6937;56.096;12.664;2024-03-08T07:44:05;11.45;;;9.68;;
13731;SDS011;6937;56.096;12.664;2024-03-08T07:46:30;10.98;;;9.80;;
13731;SDS011;6937;56.096;12.664;2024-03-08T07:48:56;10.07;;;8.93;;
13731;SDS011;6937;56.096;12.664;2024-03-08T07:51:21;8.98;;;8.02;;
13731;SDS011;6937;56.096;12.664;2024-03-08T07:53:46;11.32;;;9.75;;
13731;SDS011;6937;56.096;12.664;2024-03-08T07:56:12;10.52;;;8.90;;
13731;SDS011;6937;56.096;12.664;2024-03-08T07:58:39;11.55;;;8.98;;
13731;SDS011;6937;56.096;12.664;2024-03-08T08:01:05;12.88;;;9.38;;
13731;SDS011;6937;56.096;12.664;2024-03-08T08:03:31;10.10;;;9.00;;
13731;SDS011;6937;56.096;12.664;2024-03-08T08:05:57;11.57;;;9.48;;
13731;SDS011;6937;56.096;12.664;2024-03-08T08:08:22;9.32;;;8.43;;
13731;SDS011;6937;56.096;12.664;2024-03-08T08:10:47;10.88;;;9.20;;
13731;SDS011;6937;56.096;12.664;2024-03-08T08:13:13;9.30;;;7.82;;
13731;SDS011;6937;56.096;12.664;2024-03-08T08:15:38;14.48;;;9.57;;
13731;SDS011;6937;56.096;12.664;2024-03-08T08:18:03;10.32;;;8.70;;
13731;SDS011;6937;56.096;12.664;2024-03-08T08:20:31;11.85;;;9.55;;
13731;SDS011;6937;56.096;12.664;2024-03-08T08:22:57;10.82;;;9.07;;
13731;SDS011;6937;56.096;12.664;2024-03-08T08:25:24;12.68;;;10.80;;
13731;SDS011;6937;56.096;12.664;2024-03-08T08:27:49;15.63;;;11.00;;
13731;SDS011;6937;56.096;12.664;2024-03-08T08:30:15;19.00;;;12.85;;
13731;SDS011;6937;56.096;12.664;2024-03-08T08:32:40;14.30;;;12.80;;
13731;SDS011;6937;56.096;12.664;2024-03-08T08:35:07;17.48;;;13.55;;
13731;SDS011;6937;56.096;12.664;2024-03-08T08:37:34;15.65;;;14.05;;
13731;SDS011;6937;56.096;12.664;2024-03-08T08:40:02;19.08;;;13.68;;
13731;SDS011;6937;56.096;12.664;2024-03-08T08:42:33;19.85;;;16.20;;
13731;SDS011;6937;56.096;12.664;2024-03-08T08:44:59;24.27;;;18.98;;
13731;SDS011;6937;56.096;12.664;2024-03-08T08:47:24;20.35;;;17.70;;
13731;SDS011;6937;56.096;12.664;2024-03-08T08:49:49;24.13;;;18.17;;
13731;SDS011;6937;56.096;12.664;2024-03-08T08:52:15;19.23;;;16.38;;
13731;SDS011;6937;56.096;12.664;2024-03-08T08:54:41;18.60;;;16.33;;
13731;SDS011;6937;56.096;12.664;2024-03-08T08:57:07;17.70;;;15.43;;
13731;SDS011;6937;56.096;12.664;2024-03-08T08:59:36;20.17;;;15.20;;
13731;SDS011;6937;56.096;12.664;2024-03-08T09:02:02;18.33;;;14.45;;
13731;SDS011;6937;56.096;12.664;2024-03-08T09:04:28;16.85;;;15.05;;
13731;SDS011;6937;56.096;12.664;2024-03-08T09:06:54;15.82;;;12.75;;
13731;SDS011;6937;56.096;12.664;2024-03-08T09:09:20;16.13;;;12.80;;
13731;SDS011;6937;56.096;12.664;2024-03-08T09:11:47;15.82;;;13.73;;
13731;SDS011;6937;56.096;12.664;2024-03-08T09:14:12;15.13;;;12.75;;
13731;SDS011;6937;56.096;12.664;2024-03-08T09:16:37;12.75;;;11.38;;
13731;SDS011;6937;56.096;12.664;2024-03-08T09:19:03;13.68;;;11.20;;
13731;SDS011;6937;56.096;12.664;2024-03-08T09:21:28;12.70;;;11.40;;
13731;SDS011;6937;56.096;12.664;2024-03-08T09:23:54;15.63;;;12.80;;
13731;SDS011;6937;56.096;12.664;2024-03-08T09:26:20;13.68;;;11.38;;
13731;SDS011;6937;56.096;12.664;2024-03-08T09:28:47;13.10;;;11.23;;
13731;SDS011;6937;56.096;12.664;2024-03-08T09:31:12;14.02;;;12.15;;
13731;SDS011;6937;56.096;12.664;2024-03-08T09:33:38;11.25;;;10.02;;
13731;SDS011;6937;56.096;12.664;2024-03-08T09:36:04;11.23;;;10.00;;
13731;SDS011;6937;56.096;12.664;2024-03-08T09:38:32;17.40;;;13.27;;
13731;SDS011;6937;56.096;12.664;2024-03-08T09:40:59;20.60;;;17.45;;
13731;SDS011;6937;56.096;12.664;2024-03-08T09:43:26;21.42;;;19.13;;
13731;SDS011;6937;56.096;12.664;2024-03-08T09:45:53;20.20;;;18.00;;
13731;SDS011;6937;56.096;12.664;2024-03-08T09:48:20;20.77;;;18.52;;
13731;SDS011;6937;56.096;12.664;2024-03-08T09:50:47;21.35;;;19.05;;
13731;SDS011;6937;56.096;12.664;2024-03-08T09:53:13;22.92;;;19.30;;
13731;SDS011;6937;56.096;12.664;2024-03-08T09:55:38;24.20;;;20.38;;
13731;SDS011;6937;56.096;12.664;2024-03-08T09:58:13;22.63;;;19.30;;
13731;SDS011;6937;56.096;12.664;2024-03-08T10:00:46;25.25;;;18.75;;
13731;SDS011;6937;56.096;12.664;2024-03-08T10:03:11;21.42;;;18.42;;
13731;SDS011;6937;56.096;12.664;2024-03-08T10:05:39;20.98;;;16.25;;
13731;SDS011;6937;56.096;12.664;2024-03-08T10:08:06;19.88;;;15.82;;
13731;SDS011;6937;56.096;12.664;2024-03-08T10:10:33;19.63;;;16.08;;
13731;SDS011;6937;56.096;12.664;2024-03-08T10:12:59;20.25;;;15.88;;
13731;SDS011;6937;56.096;12.664;2024-03-08T10:15:26;18.20;;;14.93;;
13731;SDS011;6937;56.096;12.664;2024-03-08T10:17:55;16.85;;;15.05;;
13731;SDS011;6937;56.096;12.664;2024-03-08T10:20:21;16.08;;;13.30;;
13731;SDS011;6937;56.096;12.664;2024-03-08T10:22:46;16.33;;;13.18;;
13731;SDS011;6937;56.096;12.664;2024-03-08T10:25:12;14.95;;;13.43;;
13731;SDS011;6937;56.096;12.664;2024-03-08T10:27:38;14.32;;;12.93;;
13731;SDS011;6937;56.096;12.664;2024-03-08T10:30:12;16.73;;;13.32;;
13731;SDS011;6937;56.096;12.664;2024-03-08T10:32:39;13.23;;;11.85;;
13731;SDS011;6937;56.096;12.664;2024-03-08T10:35:09;13.60;;;12.20;;
13731;SDS011;6937;56.096;12.664;2024-03-08T10:37:37;15.68;;;13.05;;
13731;SDS011;6937;56.096;12.664;2024-03-08T10:40:13;14.55;;;13.07;;
13731;SDS011;6937;56.096;12.664;2024-03-08T10:42:52;17.10;;;14.10;;
13731;SDS011;6937;56.096;12.664;2024-03-08T10:47:50;16.20;;;14.00;;
13731;SDS011;6937;56.096;12.664;2024-03-08T10:50:25;16.02;;;13.80;;
13731;SDS011;6937;56.096;12.664;2024-03-08T10:52:51;16.15;;;13.85;;
13731;SDS011;6937;56.096;12.664;2024-03-08T10:55:17;17.27;;;13.68;;
13731;SDS011;6937;56.096;12.664;2024-03-08T10:57:45;16.15;;;13.70;;
13731;SDS011;6937;56.096;12.664;2024-03-08T11:00:11;13.82;;;11.63;;
13731;SDS011;6937;56.096;12.664;2024-03-08T11:02:38;13.48;;;11.75;;
13731;SDS011;6937;56.096;12.664;2024-03-08T11:05:04;12.65;;;11.20;;
13731;SDS011;6937;56.096;12.664;2024-03-08T11:07:33;14.93;;;11.70;;
13731;SDS011;6937;56.096;12.664;2024-03-08T11:10:02;15.48;;;11.70;;
13731;SDS011;6937;56.096;12.664;2024-03-08T11:12:36;12.93;;;11.05;;
13731;SDS011;6937;56.096;12.664;2024-03-08T11:15:03;12.75;;;10.93;;
13731;SDS011;6937;56.096;12.664;2024-03-08T11:20:03;12.98;;;11.57;;
13731;SDS011;6937;56.096;12.664;2024-03-08T11:22:40;14.55;;;12.93;;
13731;SDS011;6937;56.096;12.664;2024-03-08T11:25:08;13.95;;;12.45;;
13731;SDS011;6937;56.096;12.664;2024-03-08T11:27:38;14.40;;;12.65;;
13731;SDS011;6937;56.096;12.664;2024-03-08T11:30:04;12.95;;;11.57;;
13731;SDS011;6937;56.096;12.664;2024-03-08T11:32:35;12.07;;;10.48;;
13731;SDS011;6937;56.096;12.664;2024-03-08T11:35:01;11.60;;;10.38;;
13731;SDS011;6937;56.096;12.664;2024-03-08T11:37:33;12.50;;;10.73;;
13731;SDS011;6937;56.096;12.664;2024-03-08T11:40:05;12.52;;;10.45;;
13731;SDS011;6937;56.096;12.664;2024-03-08T11:42:39;11.30;;;10.05;;
13731;SDS011;6937;56.096;12.664;2024-03-08T11:45:09;11.00;;;9.85;;
13731;SDS011;6937;56.096;12.664;2024-03-08T11:47:36;11.70;;;10.55;;
13731;SDS011;6937;56.096;12.664;2024-03-08T11:50:05;12.73;;;11.40;;
13731;SDS011;6937;56.096;12.664;2024-03-08T11:52:35;12.05;;;10.52;;
13731;SDS011;6937;56.096;12.664;2024-03-08T11:55:01;10.88;;;9.77;;
13731;SDS011;6937;56.096;12.664;2024-03-08T11:57:28;10.45;;;9.40;;
13731;SDS011;6937;56.096;12.664;2024-03-08T11:59:53;9.48;;;8.07;;
13731;SDS011;6937;56.096;12.664;2024-03-08T12:02:23;9.93;;;8.15;;
13731;SDS011;6937;56.096;12.664;2024-03-08T12:04:58;11.13;;;8.55;;
13731;SDS011;6937;56.096;12.664;2024-03-08T12:07:25;10.65;;;8.35;;
13731;SDS011;6937;56.096;12.664;2024-03-08T12:10:25;11.18;;;8.80;;
13731;SDS011;6937;56.096;12.664;2024-03-08T12:12:47;10.35;;;8.45;;
13731;SDS011;6937;56.096;12.664;2024-03-08T12:15:15;9.40;;;8.15;;
13731;SDS011;6937;56.096;12.664;2024-03-08T12:17:41;8.70;;;7.90;;
13731;SDS011;6937;56.096;12.664;2024-03-08T12:20:24;10.13;;;8.23;;
13731;SDS011;6937;56.096;12.664;2024-03-08T12:22:51;8.85;;;8.05;;
13731;SDS011;6937;56.096;12.664;2024-03-08T12:25:18;9.10;;;8.30;;
13731;SDS011;6937;56.096;12.664;2024-03-08T12:27:45;9.95;;;8.80;;
13731;SDS011;6937;56.096;12.664;2024-03-08T12:32:53;9.63;;;8.63;;
13731;SDS011;6937;56.096;12.664;2024-03-08T12:35:27;9.82;;;8.15;;
13731;SDS011;6937;56.096;12.664;2024-03-08T12:37:54;9.48;;;8.10;;
13731;SDS011;6937;56.096;12.664;2024-03-08T12:40:29;8.63;;;7.82;;
13731;SDS011;6937;56.096;12.664;2024-03-08T12:42:56;11.70;;;8.43;;
13731;SDS011;6937;56.096;12.664;2024-03-08T12:45:23;9.05;;;8.15;;
13731;SDS011;6937;56.096;12.664;2024-03-08T12:47:58;9.40;;;8.15;;
13731;SDS011;6937;56.096;12.664;2024-03-08T12:50:24;8.77;;;7.88;;
13731;SDS011;6937;56.096;12.664;2024-03-08T12:52:50;9.35;;;7.57;;
13731;SDS011;6937;56.096;12.664;2024-03-08T12:55:17;10.20;;;7.55;;
13731;SDS011;6937;56.096;12.664;2024-03-08T12:57:43;8.52;;;7.63;;
13731;SDS011;6937;56.096;12.664;2024-03-08T13:00:09;7.53;;;6.78;;
13731;SDS011;6937;56.096;12.664;2024-03-08T13:02:44;7.47;;;6.72;;
13731;SDS011;6937;56.096;12.664;2024-03-08T13:05:13;8.15;;;7.25;;
13731;SDS011;6937;56.096;12.664;2024-03-08T13:07:39;7.65;;;6.88;;
13731;SDS011;6937;56.096;12.664;2024-03-08T13:10:06;8.27;;;7.40;;
13731;SDS011;6937;56.096;12.664;2024-03-08T13:12:32;11.50;;;7.65;;
13731;SDS011;6937;56.096;12.664;2024-03-08T13:14:58;8.82;;;7.90;;
13731;SDS011;6937;56.096;12.664;2024-03-08T13:17:23;9.63;;;8.35;;
13731;SDS011;6937;56.096;12.664;2024-03-08T13:19:49;10.40;;;8.43;;
13731;SDS011;6937;56.096;12.664;2024-03-08T13:22:14;9.82;;;8.82;;
13731;SDS011;6937;56.096;12.664;2024-03-08T13:24:44;9.93;;;8.63;;
13731;SDS011;6937;56.096;12.664;2024-03-08T13:27:10;9.85;;;8.80;;
13731;SDS011;6937;56.096;12.664;2024-03-08T13:29:44;9.63;;;8.63;;
13731;SDS011;6937;56.096;12.664;2024-03-08T13:32:11;12.00;;;8.05;;
13731;SDS011;6937;56.096;12.664;2024-03-08T13:34:37;10.50;;;8.32;;
13731;SDS011;6937;56.096;12.664;2024-03-08T13:37:06;8.50;;;7.70;;
13731;SDS011;6937;56.096;12.664;2024-03-08T13:39:31;8.55;;;7.75;;
13731;SDS011;6937;56.096;12.664;2024-03-08T13:42:06;8.70;;;7.90;;
13731;SDS011;6937;56.096;12.664;2024-03-08T13:44:37;8.82;;;8.02;;
13731;SDS011;6937;56.096;12.664;2024-03-08T13:47:03;10.02;;;8.77;;
13731;SDS011;6937;56.096;12.664;2024-03-08T13:49:29;8.18;;;7.35;;
13731;SDS011;6937;56.096;12.664;2024-03-08T13:51:55;7.80;;;7.00;;
13731;SDS011;6937;56.096;12.664;2024-03-08T13:54:20;7.72;;;7.00;;
13731;SDS011;6937;56.096;12.664;2024-03-08T13:56:46;7.13;;;6.22;;
13731;SDS011;6937;56.096;12.664;2024-03-08T13:59:12;6.97;;;6.20;;
13731;SDS011;6937;56.096;12.664;2024-03-08T14:01:38;6.47;;;5.82;;
13731;SDS011;6937;56.096;12.664;2024-03-08T14:04:03;7.07;;;6.10;;
13731;SDS011;6937;56.096;12.664;2024-03-08T14:06:29;5.22;;;4.55;;
13731;SDS011;6937;56.096;12.664;2024-03-08T14:08:55;6.38;;;4.68;;
13731;SDS011;6937;56.096;12.664;2024-03-08T14:11:22;4.80;;;4.30;;
13731;SDS011;6937;56.096;12.664;2024-03-08T14:13:49;6.18;;;4.78;;
13731;SDS011;6937;56.096;12.664;2024-03-08T14:16:14;5.20;;;4.70;;
13731;SDS011;6937;56.096;12.664;2024-03-08T14:18:40;5.57;;;4.82;;
13731;SDS011;6937;56.096;12.664;2024-03-08T14:21:06;4.85;;;4.45;;
13731;SDS011;6937;56.096;12.664;2024-03-08T14:23:33;5.60;;;5.00;;
13731;SDS011;6937;56.096;12.664;2024-03-08T14:25:59;5.32;;;4.85;;
13731;SDS011;6937;56.096;12.664;2024-03-08T14:28:25;6.63;;;5.90;;
13731;SDS011;6937;56.096;12.664;2024-03-08T14:30:52;6.25;;;5.70;;
13731;SDS011;6937;56.096;12.664;2024-03-08T14:33:18;6.40;;;5.35;;
13731;SDS011;6937;56.096;12.664;2024-03-08T14:35:43;7.15;;;5.78;;
13731;SDS011;6937;56.096;12.664;2024-03-08T14:38:09;6.78;;;5.00;;